sensor_id;sensor_type;location;lat;lon;timestamp;temperature;humidity
32965;DHT22;19317;48.226;11.686;2023-03-23T00:03:08;11.20;99.90
32965;DHT22;19317;48.226;11.686;2023-03-23T00:07:58;11.20;99.90
32965;DHT22;19317;48.226;11.686;2023-03-23T00:12:49;11.20;99.90
32965;DHT22;19317;48.226;11.686;2023-03-23T00:17:39;11.30;99.90
32965;DHT22;19317;48.226;11.686;2023-03-23T00:22:29;11.40;99.90
32965;DHT22;19317;48.226;11.686;2023-03-23T00:27:21;11.30;99.90
32965;DHT22;19317;48.226;11.686;2023-03-23T00:32:13;11.20;99.90
32965;DHT22;19317;48.226;11.686;2023-03-23T00:37:03;11.10;99.90
32965;DHT22;19317;48.226;11.686;2023-03-23T00:41:54;11.10;99.90
32965;DHT22;19317;48.226;11.686;2023-03-23T00:46:46;11.20;99.90
32965;DHT22;19317;48.226;11.686;2023-03-23T00:51:37;11.10;99.90
32965;DHT22;19317;48.226;11.686;2023-03-23T00:56:27;11.20;99.90
32965;DHT22;19317;48.226;11.686;2023-03-23T01:01:17;11.10;99.90
32965;DHT22;19317;48.226;11.686;2023-03-23T01:06:10;11.00;99.90
32965;DHT22;19317;48.226;11.686;2023-03-23T01:11:07;11.30;99.90
32965;DHT22;19317;48.226;11.686;2023-03-23T01:15:57;11.00;99.90
32965;DHT22;19317;48.226;11.686;2023-03-23T01:20:48;10.90;99.90
32965;DHT22;19317;48.226;11.686;2023-03-23T01:25:38;11.10;99.90
32965;DHT22;19317;48.226;11.686;2023-03-23T01:30:28;11.40;99.90
32965;DHT22;19317;48.226;11.686;2023-03-23T01:35:19;11.50;99.90
32965;DHT22;19317;48.226;11.686;2023-03-23T01:40:10;11.40;99.90
32965;DHT22;19317;48.226;11.686;2023-03-23T01:50:09;11.20;99.90
32965;DHT22;19317;48.226;11.686;2023-03-23T01:55:00;11.10;99.90
32965;DHT22;19317;48.226;11.686;2023-03-23T01:59:52;11.00;99.90
32965;DHT22;19317;48.226;11.686;2023-03-23T02:04:44;11.00;99.90
32965;DHT22;19317;48.226;11.686;2023-03-23T02:09:35;11.20;99.90
32965;DHT22;19317;48.226;11.686;2023-03-23T02:14:27;11.10;99.90
32965;DHT22;19317;48.226;11.686;2023-03-23T02:19:48;10.70;99.90
32965;DHT22;19317;48.226;11.686;2023-03-23T02:24:51;11.00;99.90
32965;DHT22;19317;48.226;11.686;2023-03-23T02:35:11;10.50;99.90
32965;DHT22;19317;48.226;11.686;2023-03-23T02:44:59;10.20;99.90
32965;DHT22;19317;48.226;11.686;2023-03-23T02:49:54;10.20;99.90
32965;DHT22;19317;48.226;11.686;2023-03-23T02:54:47;10.20;99.90
32965;DHT22;19317;48.226;11.686;2023-03-23T02:59:39;10.60;99.90
32965;DHT22;19317;48.226;11.686;2023-03-23T03:04:33;10.60;99.90
32965;DHT22;19317;48.226;11.686;2023-03-23T03:10:02;10.60;99.90
32965;DHT22;19317;48.226;11.686;2023-03-23T03:15:10;10.80;99.90
32965;DHT22;19317;48.226;11.686;2023-03-23T03:20:04;10.40;99.90
32965;DHT22;19317;48.226;11.686;2023-03-23T03:24:58;10.30;99.90
32965;DHT22;19317;48.226;11.686;2023-03-23T03:29:55;10.50;99.90
32965;DHT22;19317;48.226;11.686;2023-03-23T03:34:46;10.40;99.90
32965;DHT22;19317;48.226;11.686;2023-03-23T03:39:37;10.20;99.90
32965;DHT22;19317;48.226;11.686;2023-03-23T03:44:28;10.20;99.90
32965;DHT22;19317;48.226;11.686;2023-03-23T03:49:19;10.20;99.90
32965;DHT22;19317;48.226;11.686;2023-03-23T03:54:09;9.80;99.90
32965;DHT22;19317;48.226;11.686;2023-03-23T03:58:59;9.80;99.90
32965;DHT22;19317;48.226;11.686;2023-03-23T04:03:50;9.90;99.90
32965;DHT22;19317;48.226;11.686;2023-03-23T04:08:41;9.80;99.90
32965;DHT22;19317;48.226;11.686;2023-03-23T04:13:32;9.80;99.90
32965;DHT22;19317;48.226;11.686;2023-03-23T04:18:22;9.80;99.90
32965;DHT22;19317;48.226;11.686;2023-03-23T04:23:17;9.80;99.90
32965;DHT22;19317;48.226;11.686;2023-03-23T04:28:07;9.70;99.90
32965;DHT22;19317;48.226;11.686;2023-03-23T04:32:58;10.00;99.90
32965;DHT22;19317;48.226;11.686;2023-03-23T04:37:48;10.10;99.90
32965;DHT22;19317;48.226;11.686;2023-03-23T04:42:40;10.10;99.90
32965;DHT22;19317;48.226;11.686;2023-03-23T04:47:33;9.90;99.90
32965;DHT22;19317;48.226;11.686;2023-03-23T04:52:27;9.90;99.90
32965;DHT22;19317;48.226;11.686;2023-03-23T04:57:18;9.80;99.90
32965;DHT22;19317;48.226;11.686;2023-03-23T05:02:10;9.80;99.90
32965;DHT22;19317;48.226;11.686;2023-03-23T05:07:01;9.90;99.90
32965;DHT22;19317;48.226;11.686;2023-03-23T05:11:51;9.80;99.90
32965;DHT22;19317;48.226;11.686;2023-03-23T05:16:41;9.80;99.90
32965;DHT22;19317;48.226;11.686;2023-03-23T05:21:32;10.10;99.90
32965;DHT22;19317;48.226;11.686;2023-03-23T05:26:23;9.90;99.90
32965;DHT22;19317;48.226;11.686;2023-03-23T05:31:13;9.90;99.90
32965;DHT22;19317;48.226;11.686;2023-03-23T05:36:04;9.90;99.90
32965;DHT22;19317;48.226;11.686;2023-03-23T05:40:58;9.90;99.90
32965;DHT22;19317;48.226;11.686;2023-03-23T05:45:49;9.90;99.90
32965;DHT22;19317;48.226;11.686;2023-03-23T05:50:39;10.00;99.90
32965;DHT22;19317;48.226;11.686;2023-03-23T05:55:30;10.00;99.90
32965;DHT22;19317;48.226;11.686;2023-03-23T06:00:20;10.30;99.90
32965;DHT22;19317;48.226;11.686;2023-03-23T06:05:11;10.40;99.90
32965;DHT22;19317;48.226;11.686;2023-03-23T06:10:02;9.90;99.90
32965;DHT22;19317;48.226;11.686;2023-03-23T06:14:52;9.70;99.90
32965;DHT22;19317;48.226;11.686;2023-03-23T06:19:44;9.90;99.90
32965;DHT22;19317;48.226;11.686;2023-03-23T06:24:34;10.00;99.90
32965;DHT22;19317;48.226;11.686;2023-03-23T06:29:25;9.90;99.90
32965;DHT22;19317;48.226;11.686;2023-03-23T06:34:15;10.00;99.90
32965;DHT22;19317;48.226;11.686;2023-03-23T06:39:06;10.10;99.90
32965;DHT22;19317;48.226;11.686;2023-03-23T06:43:57;10.20;99.90
32965;DHT22;19317;48.226;11.686;2023-03-23T06:48:47;10.20;99.90
32965;DHT22;19317;48.226;11.686;2023-03-23T06:53:38;10.30;99.90
32965;DHT22;19317;48.226;11.686;2023-03-23T06:58:28;10.40;99.90
32965;DHT22;19317;48.226;11.686;2023-03-23T07:03:18;10.50;99.90
32965;DHT22;19317;48.226;11.686;2023-03-23T07:08:09;10.60;99.90
32965;DHT22;19317;48.226;11.686;2023-03-23T07:12:59;10.80;99.90
32965;DHT22;19317;48.226;11.686;2023-03-23T07:17:50;10.90;99.90
32965;DHT22;19317;48.226;11.686;2023-03-23T07:22:40;11.00;99.90
32965;DHT22;19317;48.226;11.686;2023-03-23T07:27:31;11.20;99.90
32965;DHT22;19317;48.226;11.686;2023-03-23T07:32:21;11.40;99.90
32965;DHT22;19317;48.226;11.686;2023-03-23T07:37:13;11.60;99.90
32965;DHT22;19317;48.226;11.686;2023-03-23T07:42:03;11.80;99.90
32965;DHT22;19317;48.226;11.686;2023-03-23T07:46:54;12.10;99.90
32965;DHT22;19317;48.226;11.686;2023-03-23T07:51:45;12.30;99.90
32965;DHT22;19317;48.226;11.686;2023-03-23T07:56:36;12.50;99.90
32965;DHT22;19317;48.226;11.686;2023-03-23T08:01:27;12.80;99.90
32965;DHT22;19317;48.226;11.686;2023-03-23T08:06:17;12.80;99.90
32965;DHT22;19317;48.226;11.686;2023-03-23T08:11:08;12.80;99.90
32965;DHT22;19317;48.226;11.686;2023-03-23T08:15:59;12.90;99.90
32965;DHT22;19317;48.226;11.686;2023-03-23T08:20:50;12.90;99.90
32965;DHT22;19317;48.226;11.686;2023-03-23T08:25:41;13.00;99.90
32965;DHT22;19317;48.226;11.686;2023-03-23T08:30:32;13.10;99.90
32965;DHT22;19317;48.226;11.686;2023-03-23T08:35:23;13.20;99.90
32965;DHT22;19317;48.226;11.686;2023-03-23T08:40:14;13.40;99.90
32965;DHT22;19317;48.226;11.686;2023-03-23T08:45:06;13.50;99.90
32965;DHT22;19317;48.226;11.686;2023-03-23T08:49:57;13.60;99.90
32965;DHT22;19317;48.226;11.686;2023-03-23T08:54:47;13.80;99.90
32965;DHT22;19317;48.226;11.686;2023-03-23T08:59:37;13.90;99.90
32965;DHT22;19317;48.226;11.686;2023-03-23T09:04:28;14.00;99.90
32965;DHT22;19317;48.226;11.686;2023-03-23T09:09:18;14.10;99.90
32965;DHT22;19317;48.226;11.686;2023-03-23T09:14:10;14.30;99.90
32965;DHT22;19317;48.226;11.686;2023-03-23T09:19:01;14.50;99.90
32965;DHT22;19317;48.226;11.686;2023-03-23T09:23:52;14.60;99.90
32965;DHT22;19317;48.226;11.686;2023-03-23T09:28:42;14.80;99.90
32965;DHT22;19317;48.226;11.686;2023-03-23T09:33:33;15.00;99.90
32965;DHT22;19317;48.226;11.686;2023-03-23T09:38:23;15.20;99.90
32965;DHT22;19317;48.226;11.686;2023-03-23T09:48:50;15.60;99.90
32965;DHT22;19317;48.226;11.686;2023-03-23T09:53:44;15.90;99.90
32965;DHT22;19317;48.226;11.686;2023-03-23T09:58:51;16.10;99.90
32965;DHT22;19317;48.226;11.686;2023-03-23T10:03:44;16.30;99.90
32965;DHT22;19317;48.226;11.686;2023-03-23T10:08:34;16.60;99.90
32965;DHT22;19317;48.226;11.686;2023-03-23T10:18:41;16.90;98.90
32965;DHT22;19317;48.226;11.686;2023-03-23T10:28:52;17.00;98.20
32965;DHT22;19317;48.226;11.686;2023-03-23T10:33:47;17.00;97.80
32965;DHT22;19317;48.226;11.686;2023-03-23T10:43:47;16.90;97.10
32965;DHT22;19317;48.226;11.686;2023-03-23T10:48:38;16.90;96.80
32965;DHT22;19317;48.226;11.686;2023-03-23T10:53:35;16.80;96.90
32965;DHT22;19317;48.226;11.686;2023-03-23T10:58:31;16.80;96.90
32965;DHT22;19317;48.226;11.686;2023-03-23T11:08:28;16.80;97.00
32965;DHT22;19317;48.226;11.686;2023-03-23T11:13:21;16.80;97.10
32965;DHT22;19317;48.226;11.686;2023-03-23T11:18:25;16.70;97.40
32965;DHT22;19317;48.226;11.686;2023-03-23T11:23:30;16.80;97.70
32965;DHT22;19317;48.226;11.686;2023-03-23T11:28:26;16.90;97.90
32965;DHT22;19317;48.226;11.686;2023-03-23T11:33:17;17.10;98.00
32965;DHT22;19317;48.226;11.686;2023-03-23T11:38:17;17.10;97.90
32965;DHT22;19317;48.226;11.686;2023-03-23T11:43:13;17.30;97.70
32965;DHT22;19317;48.226;11.686;2023-03-23T11:48:34;17.20;97.80
32965;DHT22;19317;48.226;11.686;2023-03-23T11:53:54;17.30;97.90
32965;DHT22;19317;48.226;11.686;2023-03-23T11:58:46;17.30;97.80
32965;DHT22;19317;48.226;11.686;2023-03-23T12:19:19;17.60;96.80
32965;DHT22;19317;48.226;11.686;2023-03-23T12:24:34;17.50;96.90
32965;DHT22;19317;48.226;11.686;2023-03-23T12:30:02;17.80;96.60
32965;DHT22;19317;48.226;11.686;2023-03-23T12:35:42;17.90;96.10
32965;DHT22;19317;48.226;11.686;2023-03-23T12:55:47;17.90;96.10
32965;DHT22;19317;48.226;11.686;2023-03-23T13:06:12;18.10;96.10
32965;DHT22;19317;48.226;11.686;2023-03-23T13:11:14;18.00;95.70
32965;DHT22;19317;48.226;11.686;2023-03-23T13:16:07;18.10;95.40
32965;DHT22;19317;48.226;11.686;2023-03-23T13:31:01;18.10;96.80
32965;DHT22;19317;48.226;11.686;2023-03-23T13:35:51;17.90;97.00
32965;DHT22;19317;48.226;11.686;2023-03-23T13:40:43;17.90;97.00
32965;DHT22;19317;48.226;11.686;2023-03-23T13:45:46;18.00;97.10
32965;DHT22;19317;48.226;11.686;2023-03-23T13:51:03;18.00;97.30
32965;DHT22;19317;48.226;11.686;2023-03-23T13:56:16;18.20;97.70
32965;DHT22;19317;48.226;11.686;2023-03-23T14:01:18;18.10;96.80
32965;DHT22;19317;48.226;11.686;2023-03-23T14:06:14;17.90;97.00
32965;DHT22;19317;48.226;11.686;2023-03-23T14:16:37;17.80;97.30
32965;DHT22;19317;48.226;11.686;2023-03-23T14:21:48;17.70;97.50
32965;DHT22;19317;48.226;11.686;2023-03-23T14:26:39;17.70;97.60
32965;DHT22;19317;48.226;11.686;2023-03-23T14:31:30;17.60;97.70
32965;DHT22;19317;48.226;11.686;2023-03-23T14:36:28;17.70;97.80
32965;DHT22;19317;48.226;11.686;2023-03-23T14:41:19;17.60;97.90
32965;DHT22;19317;48.226;11.686;2023-03-23T14:46:10;17.60;97.30
32965;DHT22;19317;48.226;11.686;2023-03-23T14:51:04;17.60;97.40
32965;DHT22;19317;48.226;11.686;2023-03-23T14:55:55;17.40;97.20
32965;DHT22;19317;48.226;11.686;2023-03-23T15:01:00;17.30;97.70
32965;DHT22;19317;48.226;11.686;2023-03-23T15:05:55;17.30;97.70
32965;DHT22;19317;48.226;11.686;2023-03-23T15:10:55;17.30;97.80
32965;DHT22;19317;48.226;11.686;2023-03-23T15:15:46;17.20;98.00
32965;DHT22;19317;48.226;11.686;2023-03-23T15:25:34;17.00;98.50
32965;DHT22;19317;48.226;11.686;2023-03-23T15:35:21;17.10;98.80
32965;DHT22;19317;48.226;11.686;2023-03-23T15:40:23;17.00;98.70
32965;DHT22;19317;48.226;11.686;2023-03-23T15:55:29;16.80;99.70
32965;DHT22;19317;48.226;11.686;2023-03-23T16:00:27;16.70;99.90
32965;DHT22;19317;48.226;11.686;2023-03-23T16:05:18;16.70;99.90
32965;DHT22;19317;48.226;11.686;2023-03-23T16:10:18;16.60;99.90
32965;DHT22;19317;48.226;11.686;2023-03-23T16:15:09;16.50;99.90
32965;DHT22;19317;48.226;11.686;2023-03-23T16:19:59;16.40;99.90
32965;DHT22;19317;48.226;11.686;2023-03-23T16:24:50;16.20;99.90
32965;DHT22;19317;48.226;11.686;2023-03-23T16:29:40;16.20;99.90
32965;DHT22;19317;48.226;11.686;2023-03-23T16:34:30;16.10;99.90
32965;DHT22;19317;48.226;11.686;2023-03-23T16:39:21;16.00;99.90
32965;DHT22;19317;48.226;11.686;2023-03-23T16:44:12;15.90;99.90
32965;DHT22;19317;48.226;11.686;2023-03-23T16:49:02;15.90;99.90
32965;DHT22;19317;48.226;11.686;2023-03-23T16:53:53;15.80;99.90
32965;DHT22;19317;48.226;11.686;2023-03-23T16:58:43;15.70;99.90
32965;DHT22;19317;48.226;11.686;2023-03-23T17:03:33;15.60;99.90
32965;DHT22;19317;48.226;11.686;2023-03-23T17:08:24;15.50;99.90
32965;DHT22;19317;48.226;11.686;2023-03-23T17:13:15;15.60;99.90
32965;DHT22;19317;48.226;11.686;2023-03-23T17:18:05;15.50;99.90
32965;DHT22;19317;48.226;11.686;2023-03-23T17:22:56;15.40;99.90
32965;DHT22;19317;48.226;11.686;2023-03-23T17:27:47;15.50;99.90
32965;DHT22;19317;48.226;11.686;2023-03-23T17:32:37;15.40;99.90
32965;DHT22;19317;48.226;11.686;2023-03-23T17:37:28;15.50;99.90
32965;DHT22;19317;48.226;11.686;2023-03-23T17:42:18;15.40;99.90
32965;DHT22;19317;48.226;11.686;2023-03-23T17:47:09;15.40;99.90
32965;DHT22;19317;48.226;11.686;2023-03-23T17:52:00;15.30;99.90
32965;DHT22;19317;48.226;11.686;2023-03-23T17:56:51;15.40;99.90
32965;DHT22;19317;48.226;11.686;2023-03-23T18:01:42;15.30;99.90
32965;DHT22;19317;48.226;11.686;2023-03-23T18:06:32;15.30;99.90
32965;DHT22;19317;48.226;11.686;2023-03-23T18:11:23;15.20;99.90
32965;DHT22;19317;48.226;11.686;2023-03-23T18:16:13;15.20;99.90
32965;DHT22;19317;48.226;11.686;2023-03-23T18:21:06;15.20;99.90
32965;DHT22;19317;48.226;11.686;2023-03-23T18:25:57;15.00;99.90
32965;DHT22;19317;48.226;11.686;2023-03-23T18:30:48;15.00;99.90
32965;DHT22;19317;48.226;11.686;2023-03-23T18:35:38;15.00;99.90
32965;DHT22;19317;48.226;11.686;2023-03-23T18:40:29;15.00;99.90
32965;DHT22;19317;48.226;11.686;2023-03-23T18:45:19;15.00;99.90
32965;DHT22;19317;48.226;11.686;2023-03-23T18:50:10;15.00;99.90
32965;DHT22;19317;48.226;11.686;2023-03-23T18:55:00;15.10;99.90
32965;DHT22;19317;48.226;11.686;2023-03-23T18:59:51;15.00;99.90
32965;DHT22;19317;48.226;11.686;2023-03-23T19:04:41;15.00;99.90
32965;DHT22;19317;48.226;11.686;2023-03-23T19:09:33;15.00;99.90
32965;DHT22;19317;48.226;11.686;2023-03-23T19:14:23;14.90;99.90
32965;DHT22;19317;48.226;11.686;2023-03-23T19:19:14;14.90;99.90
32965;DHT22;19317;48.226;11.686;2023-03-23T19:24:05;15.00;99.90
32965;DHT22;19317;48.226;11.686;2023-03-23T19:28:56;15.00;99.90
32965;DHT22;19317;48.226;11.686;2023-03-23T19:33:46;14.90;99.90
32965;DHT22;19317;48.226;11.686;2023-03-23T19:38:37;14.90;99.90
32965;DHT22;19317;48.226;11.686;2023-03-23T19:43:27;14.80;99.90
32965;DHT22;19317;48.226;11.686;2023-03-23T19:48:18;14.80;99.90
32965;DHT22;19317;48.226;11.686;2023-03-23T19:53:08;14.80;99.90
32965;DHT22;19317;48.226;11.686;2023-03-23T19:57:59;14.80;99.90
32965;DHT22;19317;48.226;11.686;2023-03-23T20:02:49;14.80;99.90
32965;DHT22;19317;48.226;11.686;2023-03-23T20:07:40;14.80;99.90
32965;DHT22;19317;48.226;11.686;2023-03-23T20:12:30;14.80;99.90
32965;DHT22;19317;48.226;11.686;2023-03-23T20:17:21;14.70;99.90
32965;DHT22;19317;48.226;11.686;2023-03-23T20:22:11;14.80;99.90
32965;DHT22;19317;48.226;11.686;2023-03-23T20:27:02;14.70;99.90
32965;DHT22;19317;48.226;11.686;2023-03-23T20:31:52;14.80;99.90
32965;DHT22;19317;48.226;11.686;2023-03-23T20:36:44;14.80;99.90
32965;DHT22;19317;48.226;11.686;2023-03-23T20:41:35;14.70;99.90
32965;DHT22;19317;48.226;11.686;2023-03-23T20:46:26;14.70;99.90
32965;DHT22;19317;48.226;11.686;2023-03-23T20:51:16;14.70;99.90
32965;DHT22;19317;48.226;11.686;2023-03-23T20:56:07;14.60;99.90
32965;DHT22;19317;48.226;11.686;2023-03-23T21:00:59;14.60;99.90
32965;DHT22;19317;48.226;11.686;2023-03-23T21:05:49;14.60;99.90
32965;DHT22;19317;48.226;11.686;2023-03-23T21:10:40;14.60;99.90
32965;DHT22;19317;48.226;11.686;2023-03-23T21:15:31;14.60;99.90
32965;DHT22;19317;48.226;11.686;2023-03-23T21:20:21;14.40;99.90
32965;DHT22;19317;48.226;11.686;2023-03-23T21:25:12;14.30;99.90
32965;DHT22;19317;48.226;11.686;2023-03-23T21:30:03;14.00;99.90
32965;DHT22;19317;48.226;11.686;2023-03-23T21:34:54;13.90;99.90
32965;DHT22;19317;48.226;11.686;2023-03-23T21:39:44;14.00;99.90
32965;DHT22;19317;48.226;11.686;2023-03-23T21:44:35;13.90;99.90
32965;DHT22;19317;48.226;11.686;2023-03-23T21:49:25;13.80;99.90
32965;DHT22;19317;48.226;11.686;2023-03-23T21:54:16;13.90;99.90
32965;DHT22;19317;48.226;11.686;2023-03-23T21:59:07;13.80;99.90
32965;DHT22;19317;48.226;11.686;2023-03-23T22:03:57;13.60;99.90
32965;DHT22;19317;48.226;11.686;2023-03-23T22:08:48;13.60;99.90
32965;DHT22;19317;48.226;11.686;2023-03-23T22:13:39;13.50;99.90
32965;DHT22;19317;48.226;11.686;2023-03-23T22:18:30;13.40;99.90
32965;DHT22;19317;48.226;11.686;2023-03-23T22:23:20;13.30;99.90
32965;DHT22;19317;48.226;11.686;2023-03-23T22:28:11;13.30;99.90
32965;DHT22;19317;48.226;11.686;2023-03-23T22:33:01;13.10;99.90
32965;DHT22;19317;48.226;11.686;2023-03-23T22:37:52;13.00;99.90
32965;DHT22;19317;48.226;11.686;2023-03-23T22:42:43;13.00;99.90
32965;DHT22;19317;48.226;11.686;2023-03-23T22:47:34;12.90;99.90
32965;DHT22;19317;48.226;11.686;2023-03-23T22:52:24;12.90;99.90
32965;DHT22;19317;48.226;11.686;2023-03-23T22:57:15;12.80;99.90
32965;DHT22;19317;48.226;11.686;2023-03-23T23:02:05;12.80;99.90
32965;DHT22;19317;48.226;11.686;2023-03-23T23:06:56;12.70;99.90
32965;DHT22;19317;48.226;11.686;2023-03-23T23:11:46;12.80;99.90
32965;DHT22;19317;48.226;11.686;2023-03-23T23:16:37;12.80;99.90
32965;DHT22;19317;48.226;11.686;2023-03-23T23:21:29;12.80;99.90
32965;DHT22;19317;48.226;11.686;2023-03-23T23:26:19;12.80;99.90
32965;DHT22;19317;48.226;11.686;2023-03-23T23:31:36;12.70;99.90
32965;DHT22;19317;48.226;11.686;2023-03-23T23:36:28;12.60;99.90
32965;DHT22;19317;48.226;11.686;2023-03-23T23:41:18;12.50;99.90
32965;DHT22;19317;48.226;11.686;2023-03-23T23:46:09;12.50;99.90
32965;DHT22;19317;48.226;11.686;2023-03-23T23:50:59;12.50;99.90
32965;DHT22;19317;48.226;11.686;2023-03-23T23:55:53;12.50;99.90
